sensor_id;sensor_type;location;lat;lon;timestamp;pressure;altitude;pressure_sealevel;temperature;humidity
43147;BME280;28752;48.266;7.402;2023-04-01T00:01:53;98268.25;;;10.06;80.57
43147;BME280;28752;48.266;7.402;2023-04-01T00:04:19;98263.28;;;10.03;81.14
43147;BME280;28752;48.266;7.402;2023-04-01T00:06:46;98273.06;;;10.02;81.13
43147;BME280;28752;48.266;7.402;2023-04-01T00:09:13;98273.53;;;10.06;81.29
43147;BME280;28752;48.266;7.402;2023-04-01T00:11:38;98278.97;;;10.04;81.35
43147;BME280;28752;48.266;7.402;2023-04-01T00:14:04;98284.75;;;10.08;82.31
43147;BME280;28752;48.266;7.402;2023-04-01T00:16:30;98292.84;;;10.06;82.98
43147;BME280;28752;48.266;7.402;2023-04-01T00:18:55;98299.16;;;9.97;83.06
43147;BME280;28752;48.266;7.402;2023-04-01T00:21:21;98287.31;;;9.85;82.92
43147;BME280;28752;48.266;7.402;2023-04-01T00:23:48;98277.38;;;9.87;82.96
43147;BME280;28752;48.266;7.402;2023-04-01T00:26:14;98271.44;;;9.85;83.95
43147;BME280;28752;48.266;7.402;2023-04-01T00:28:41;98259.88;;;9.77;84.35
43147;BME280;28752;48.266;7.402;2023-04-01T00:31:08;98260.59;;;9.55;84.17
43147;BME280;28752;48.266;7.402;2023-04-01T00:33:34;98281.34;;;9.91;83.53
43147;BME280;28752;48.266;7.402;2023-04-01T00:36:14;98283.03;;;9.75;83.97
43147;BME280;28752;48.266;7.402;2023-04-01T00:38:41;98301.38;;;9.77;84.32
43147;BME280;28752;48.266;7.402;2023-04-01T00:41:07;98300.56;;;9.76;84.34
43147;BME280;28752;48.266;7.402;2023-04-01T00:43:34;98308.81;;;9.73;85.02
43147;BME280;28752;48.266;7.402;2023-04-01T00:45:59;98313.59;;;9.70;84.67
43147;BME280;28752;48.266;7.402;2023-04-01T00:48:36;98302.88;;;9.63;85.20
43147;BME280;28752;48.266;7.402;2023-04-01T00:51:09;98289.16;;;9.68;85.69
43147;BME280;28752;48.266;7.402;2023-04-01T00:53:40;98297.59;;;9.55;85.84
43147;BME280;28752;48.266;7.402;2023-04-01T00:56:13;98287.34;;;9.52;86.35
43147;BME280;28752;48.266;7.402;2023-04-01T00:58:46;98298.56;;;9.62;85.96
43147;BME280;28752;48.266;7.402;2023-04-01T01:01:15;98315.91;;;9.56;85.76
43147;BME280;28752;48.266;7.402;2023-04-01T01:03:40;98307.03;;;9.49;85.83
43147;BME280;28752;48.266;7.402;2023-04-01T01:14:48;98292.97;;;9.49;87.02
43147;BME280;28752;48.266;7.402;2023-04-01T01:28:36;98260.31;;;9.25;88.88
43147;BME280;28752;48.266;7.402;2023-04-01T01:31:20;98260.81;;;9.20;88.76
43147;BME280;28752;48.266;7.402;2023-04-01T01:34:07;98243.00;;;9.14;88.87
43147;BME280;28752;48.266;7.402;2023-04-01T01:36:38;98245.78;;;8.96;89.66
43147;BME280;28752;48.266;7.402;2023-04-01T01:39:07;98251.56;;;9.00;89.79
43147;BME280;28752;48.266;7.402;2023-04-01T01:41:34;98232.59;;;8.96;89.68
43147;BME280;28752;48.266;7.402;2023-04-01T01:44:03;98218.53;;;8.71;90.25
43147;BME280;28752;48.266;7.402;2023-04-01T01:46:30;98238.00;;;8.86;90.42
43147;BME280;28752;48.266;7.402;2023-04-01T01:48:56;98236.38;;;8.85;90.18
43147;BME280;28752;48.266;7.402;2023-04-01T01:51:23;98226.13;;;8.74;91.06
43147;BME280;28752;48.266;7.402;2023-04-01T01:53:48;98239.31;;;8.74;91.55
43147;BME280;28752;48.266;7.402;2023-04-01T01:56:17;98241.16;;;8.74;91.54
43147;BME280;28752;48.266;7.402;2023-04-01T01:58:47;98244.78;;;8.64;92.46
43147;BME280;28752;48.266;7.402;2023-04-01T02:01:24;98233.41;;;8.72;92.38
43147;BME280;28752;48.266;7.402;2023-04-01T02:03:51;98243.28;;;8.78;92.87
43147;BME280;28752;48.266;7.402;2023-04-01T02:06:21;98226.28;;;8.73;92.41
43147;BME280;28752;48.266;7.402;2023-04-01T02:08:51;98232.72;;;8.86;92.01
43147;BME280;28752;48.266;7.402;2023-04-01T02:11:22;98226.66;;;8.78;92.02
43147;BME280;28752;48.266;7.402;2023-04-01T02:13:58;98230.91;;;8.79;92.07
43147;BME280;28752;48.266;7.402;2023-04-01T02:16:39;98225.97;;;8.67;92.50
43147;BME280;28752;48.266;7.402;2023-04-01T02:19:07;98252.03;;;8.70;92.99
43147;BME280;28752;48.266;7.402;2023-04-01T02:21:34;98241.31;;;8.72;93.05
43147;BME280;28752;48.266;7.402;2023-04-01T02:24:02;98239.69;;;8.79;92.77
43147;BME280;28752;48.266;7.402;2023-04-01T02:26:29;98241.50;;;8.87;92.71
43147;BME280;28752;48.266;7.402;2023-04-01T02:28:56;98242.31;;;8.87;93.10
43147;BME280;28752;48.266;7.402;2023-04-01T02:31:25;98231.94;;;9.02;92.35
43147;BME280;28752;48.266;7.402;2023-04-01T02:33:50;98226.97;;;8.99;92.16
43147;BME280;28752;48.266;7.402;2023-04-01T02:36:16;98224.16;;;8.93;91.75
43147;BME280;28752;48.266;7.402;2023-04-01T02:38:44;98235.22;;;8.88;91.99
43147;BME280;28752;48.266;7.402;2023-04-01T02:41:10;98240.97;;;8.83;91.84
43147;BME280;28752;48.266;7.402;2023-04-01T02:43:36;98232.09;;;8.76;91.72
43147;BME280;28752;48.266;7.402;2023-04-01T02:46:01;98222.66;;;8.65;91.79
43147;BME280;28752;48.266;7.402;2023-04-01T02:48:27;98221.50;;;8.60;91.74
43147;BME280;28752;48.266;7.402;2023-04-01T02:50:53;98240.13;;;8.66;91.60
43147;BME280;28752;48.266;7.402;2023-04-01T02:53:18;98224.47;;;8.65;91.58
43147;BME280;28752;48.266;7.402;2023-04-01T02:55:44;98238.19;;;8.85;90.75
43147;BME280;28752;48.266;7.402;2023-04-01T02:58:10;98212.94;;;8.74;89.30
43147;BME280;28752;48.266;7.402;2023-04-01T03:00:36;98219.72;;;8.68;89.30
43147;BME280;28752;48.266;7.402;2023-04-01T03:03:01;98225.31;;;8.74;88.73
43147;BME280;28752;48.266;7.402;2023-04-01T03:05:28;98225.47;;;8.72;89.17
43147;BME280;28752;48.266;7.402;2023-04-01T03:07:53;98226.97;;;8.83;88.62
43147;BME280;28752;48.266;7.402;2023-04-01T03:10:19;98222.69;;;8.90;88.08
43147;BME280;28752;48.266;7.402;2023-04-01T03:12:45;98219.72;;;8.93;87.33
43147;BME280;28752;48.266;7.402;2023-04-01T03:15:12;98205.69;;;9.01;82.24
43147;BME280;28752;48.266;7.402;2023-04-01T03:17:40;98217.06;;;9.01;83.59
43147;BME280;28752;48.266;7.402;2023-04-01T03:20:06;98202.72;;;9.04;84.02
43147;BME280;28752;48.266;7.402;2023-04-01T03:22:31;98208.34;;;9.01;84.71
43147;BME280;28752;48.266;7.402;2023-04-01T03:24:57;98207.00;;;8.97;84.50
43147;BME280;28752;48.266;7.402;2023-04-01T03:27:22;98180.09;;;8.85;80.04
43147;BME280;28752;48.266;7.402;2023-04-01T03:29:48;98201.91;;;9.03;78.73
43147;BME280;28752;48.266;7.402;2023-04-01T03:32:13;98206.00;;;9.06;80.90
43147;BME280;28752;48.266;7.402;2023-04-01T03:34:39;98209.16;;;9.10;78.17
43147;BME280;28752;48.266;7.402;2023-04-01T03:37:04;98216.75;;;9.13;78.15
43147;BME280;28752;48.266;7.402;2023-04-01T03:39:30;98219.72;;;9.18;77.38
43147;BME280;28752;48.266;7.402;2023-04-01T03:41:56;98220.34;;;9.20;78.30
43147;BME280;28752;48.266;7.402;2023-04-01T03:44:21;98217.91;;;9.10;80.89
43147;BME280;28752;48.266;7.402;2023-04-01T03:46:46;98225.16;;;9.08;81.89
43147;BME280;28752;48.266;7.402;2023-04-01T03:49:12;98231.28;;;9.00;82.38
43147;BME280;28752;48.266;7.402;2023-04-01T03:51:38;98213.13;;;8.89;82.63
43147;BME280;28752;48.266;7.402;2023-04-01T03:54:04;98215.25;;;8.77;83.73
43147;BME280;28752;48.266;7.402;2023-04-01T03:56:30;98214.91;;;8.64;83.98
43147;BME280;28752;48.266;7.402;2023-04-01T03:58:55;98203.03;;;8.68;83.85
43147;BME280;28752;48.266;7.402;2023-04-01T04:01:21;98217.56;;;8.72;84.44
43147;BME280;28752;48.266;7.402;2023-04-01T04:03:47;98206.66;;;8.67;83.76
43147;BME280;28752;48.266;7.402;2023-04-01T04:06:14;98202.56;;;8.64;83.41
43147;BME280;28752;48.266;7.402;2023-04-01T04:08:40;98214.41;;;8.60;83.42
43147;BME280;28752;48.266;7.402;2023-04-01T04:11:05;98208.16;;;8.69;81.89
43147;BME280;28752;48.266;7.402;2023-04-01T04:13:31;98201.06;;;8.70;82.95
43147;BME280;28752;48.266;7.402;2023-04-01T04:15:56;98201.88;;;8.79;83.27
43147;BME280;28752;48.266;7.402;2023-04-01T04:18:21;98193.81;;;8.80;82.04
43147;BME280;28752;48.266;7.402;2023-04-01T04:20:47;98199.22;;;8.62;82.37
43147;BME280;28752;48.266;7.402;2023-04-01T04:23:17;98213.91;;;8.65;82.26
43147;BME280;28752;48.266;7.402;2023-04-01T04:26:04;98202.22;;;8.76;83.12
43147;BME280;28752;48.266;7.402;2023-04-01T04:28:30;98201.06;;;8.78;83.04
43147;BME280;28752;48.266;7.402;2023-04-01T04:30:55;98225.66;;;8.87;83.08
43147;BME280;28752;48.266;7.402;2023-04-01T04:33:23;98219.38;;;8.88;83.30
43147;BME280;28752;48.266;7.402;2023-04-01T04:35:50;98203.19;;;8.91;83.38
43147;BME280;28752;48.266;7.402;2023-04-01T04:38:16;98205.03;;;8.91;83.40
43147;BME280;28752;48.266;7.402;2023-04-01T04:40:42;98193.66;;;8.90;83.35
43147;BME280;28752;48.266;7.402;2023-04-01T04:43:12;98205.34;;;8.96;83.07
43147;BME280;28752;48.266;7.402;2023-04-01T04:45:38;98208.81;;;8.88;83.42
43147;BME280;28752;48.266;7.402;2023-04-01T04:48:04;98188.53;;;8.97;83.04
43147;BME280;28752;48.266;7.402;2023-04-01T04:50:29;98190.69;;;8.93;82.82
43147;BME280;28752;48.266;7.402;2023-04-01T04:52:54;98191.00;;;8.98;82.49
43147;BME280;28752;48.266;7.402;2023-04-01T04:55:20;98173.34;;;8.91;83.31
43147;BME280;28752;48.266;7.402;2023-04-01T04:57:46;98170.66;;;9.40;81.69
43147;BME280;28752;48.266;7.402;2023-04-01T05:00:11;98191.63;;;9.41;80.43
43147;BME280;28752;48.266;7.402;2023-04-01T05:02:37;98167.66;;;9.35;81.09
43147;BME280;28752;48.266;7.402;2023-04-01T05:05:02;98182.84;;;9.41;81.01
43147;BME280;28752;48.266;7.402;2023-04-01T05:07:29;98184.66;;;9.40;80.95
43147;BME280;28752;48.266;7.402;2023-04-01T05:09:54;98166.88;;;9.18;81.90
43147;BME280;28752;48.266;7.402;2023-04-01T05:12:19;98170.50;;;9.17;82.38
43147;BME280;28752;48.266;7.402;2023-04-01T05:14:45;98170.88;;;9.05;83.29
43147;BME280;28752;48.266;7.402;2023-04-01T05:17:13;98179.13;;;9.02;83.91
43147;BME280;28752;48.266;7.402;2023-04-01T05:19:39;98175.16;;;9.06;83.49
43147;BME280;28752;48.266;7.402;2023-04-01T05:22:05;98179.09;;;9.11;83.41
43147;BME280;28752;48.266;7.402;2023-04-01T05:24:31;98182.25;;;9.14;83.55
43147;BME280;28752;48.266;7.402;2023-04-01T05:26:57;98176.81;;;9.16;83.40
43147;BME280;28752;48.266;7.402;2023-04-01T05:29:23;98180.09;;;9.01;83.41
43147;BME280;28752;48.266;7.402;2023-04-01T05:31:48;98185.06;;;9.13;83.51
43147;BME280;28752;48.266;7.402;2023-04-01T05:34:14;98174.16;;;9.07;83.46
43147;BME280;28752;48.266;7.402;2023-04-01T05:36:39;98173.81;;;9.11;83.74
43147;BME280;28752;48.266;7.402;2023-04-01T05:39:07;98175.97;;;9.07;83.92
43147;BME280;28752;48.266;7.402;2023-04-01T05:41:35;98169.22;;;9.04;84.04
43147;BME280;28752;48.266;7.402;2023-04-01T05:44:00;98167.25;;;9.06;83.96
43147;BME280;28752;48.266;7.402;2023-04-01T05:46:25;98175.34;;;9.05;83.96
43147;BME280;28752;48.266;7.402;2023-04-01T05:48:51;98171.50;;;9.07;84.45
43147;BME280;28752;48.266;7.402;2023-04-01T05:51:16;98179.28;;;9.09;84.41
43147;BME280;28752;48.266;7.402;2023-04-01T05:53:42;98183.06;;;9.15;84.11
43147;BME280;28752;48.266;7.402;2023-04-01T05:56:08;98167.56;;;8.95;84.88
43147;BME280;28752;48.266;7.402;2023-04-01T05:58:37;98185.38;;;9.01;85.12
43147;BME280;28752;48.266;7.402;2023-04-01T06:01:06;98182.56;;;9.03;85.56
43147;BME280;28752;48.266;7.402;2023-04-01T06:03:32;98173.50;;;9.05;85.75
43147;BME280;28752;48.266;7.402;2023-04-01T06:05:58;98184.06;;;9.05;85.61
43147;BME280;28752;48.266;7.402;2023-04-01T06:08:24;98181.09;;;9.09;84.56
43147;BME280;28752;48.266;7.402;2023-04-01T06:27:49;98187.19;;;9.34;85.85
43147;BME280;28752;48.266;7.402;2023-04-01T06:30:47;98188.97;;;9.41;86.24
43147;BME280;28752;48.266;7.402;2023-04-01T06:33:40;98190.78;;;9.41;86.47
43147;BME280;28752;48.266;7.402;2023-04-01T06:36:36;98205.31;;;9.45;86.36
43147;BME280;28752;48.266;7.402;2023-04-01T06:42:06;98184.31;;;9.52;87.13
43147;BME280;28752;48.266;7.402;2023-04-01T06:44:45;98191.88;;;9.63;86.78
43147;BME280;28752;48.266;7.402;2023-04-01T06:57:58;98188.69;;;9.76;86.57
43147;BME280;28752;48.266;7.402;2023-04-01T07:00:27;98197.94;;;9.80;86.51
43147;BME280;28752;48.266;7.402;2023-04-01T07:05:24;98193.31;;;9.74;86.45
43147;BME280;28752;48.266;7.402;2023-04-01T07:07:54;98197.41;;;9.85;86.49
43147;BME280;28752;48.266;7.402;2023-04-01T07:13:33;98194.78;;;9.85;86.02
43147;BME280;28752;48.266;7.402;2023-04-01T07:16:16;98212.13;;;9.87;86.39
43147;BME280;28752;48.266;7.402;2023-04-01T07:21:38;98207.97;;;9.93;86.13
43147;BME280;28752;48.266;7.402;2023-04-01T07:24:25;98211.44;;;9.93;86.02
43147;BME280;28752;48.266;7.402;2023-04-01T07:26:56;98201.50;;;9.95;86.71
43147;BME280;28752;48.266;7.402;2023-04-01T07:29:21;98200.97;;;10.00;86.02
43147;BME280;28752;48.266;7.402;2023-04-01T07:32:22;98221.78;;;10.11;85.37
43147;BME280;28752;48.266;7.402;2023-04-01T07:37:39;98217.25;;;10.20;84.47
43147;BME280;28752;48.266;7.402;2023-04-01T07:40:17;98231.00;;;10.16;84.83
43147;BME280;28752;48.266;7.402;2023-04-01T07:53:36;98237.06;;;10.24;84.03
43147;BME280;28752;48.266;7.402;2023-04-01T07:56:10;98242.13;;;10.42;84.68
43147;BME280;28752;48.266;7.402;2023-04-01T07:58:40;98239.97;;;10.46;84.50
43147;BME280;28752;48.266;7.402;2023-04-01T08:01:29;98246.53;;;10.58;84.03
43147;BME280;28752;48.266;7.402;2023-04-01T08:06:37;98261.72;;;10.88;83.01
43147;BME280;28752;48.266;7.402;2023-04-01T08:12:12;98263.00;;;10.69;83.50
43147;BME280;28752;48.266;7.402;2023-04-01T08:14:52;98263.84;;;10.69;82.83
43147;BME280;28752;48.266;7.402;2023-04-01T08:17:32;98269.16;;;10.84;83.20
43147;BME280;28752;48.266;7.402;2023-04-01T08:22:45;98259.09;;;10.79;84.36
43147;BME280;28752;48.266;7.402;2023-04-01T08:25:25;98265.78;;;10.75;83.62
43147;BME280;28752;48.266;7.402;2023-04-01T08:27:53;98274.00;;;10.57;82.41
43147;BME280;28752;48.266;7.402;2023-04-01T08:30:24;98271.09;;;10.67;84.64
43147;BME280;28752;48.266;7.402;2023-04-01T08:32:58;98269.69;;;10.79;85.24
43147;BME280;28752;48.266;7.402;2023-04-01T08:35:31;98273.38;;;10.78;85.96
43147;BME280;28752;48.266;7.402;2023-04-01T08:38:23;98275.00;;;10.79;85.07
43147;BME280;28752;48.266;7.402;2023-04-01T08:52:25;98280.56;;;11.54;83.87
43147;BME280;28752;48.266;7.402;2023-04-01T09:00:44;98281.84;;;11.73;82.17
43147;BME280;28752;48.266;7.402;2023-04-01T09:06:24;98281.28;;;11.48;82.27
43147;BME280;28752;48.266;7.402;2023-04-01T09:12:28;98285.25;;;11.82;82.52
43147;BME280;28752;48.266;7.402;2023-04-01T09:17:56;98279.59;;;11.85;82.30
43147;BME280;28752;48.266;7.402;2023-04-01T09:23:47;98297.59;;;11.74;82.70
43147;BME280;28752;48.266;7.402;2023-04-01T09:35:21;98288.16;;;11.72;83.13
43147;BME280;28752;48.266;7.402;2023-04-01T09:40:48;98286.44;;;11.79;82.84
43147;BME280;28752;48.266;7.402;2023-04-01T09:51:40;98307.94;;;12.59;79.90
43147;BME280;28752;48.266;7.402;2023-04-01T10:02:08;98315.28;;;13.15;76.90
43147;BME280;28752;48.266;7.402;2023-04-01T10:18:51;98328.47;;;12.20;75.58
43147;BME280;28752;48.266;7.402;2023-04-01T10:24:39;98342.66;;;12.27;79.29
43147;BME280;28752;48.266;7.402;2023-04-01T10:30:07;98337.69;;;11.95;75.59
43147;BME280;28752;48.266;7.402;2023-04-01T10:38:19;98334.03;;;11.96;77.05
43147;BME280;28752;48.266;7.402;2023-04-01T11:06:03;98331.47;;;13.20;71.11
43147;BME280;28752;48.266;7.402;2023-04-01T11:41:35;98333.13;;;13.93;69.77
43147;BME280;28752;48.266;7.402;2023-04-01T11:44:28;98329.19;;;14.17;70.11
43147;BME280;28752;48.266;7.402;2023-04-01T11:50:10;98343.44;;;13.74;69.30
43147;BME280;28752;48.266;7.402;2023-04-01T11:53:02;98349.28;;;13.41;68.17
43147;BME280;28752;48.266;7.402;2023-04-01T12:01:17;98360.97;;;13.25;70.19
43147;BME280;28752;48.266;7.402;2023-04-01T12:07:17;98353.63;;;13.06;69.25
43147;BME280;28752;48.266;7.402;2023-04-01T12:12:54;98344.63;;;13.28;69.04
43147;BME280;28752;48.266;7.402;2023-04-01T12:15:56;98322.50;;;13.21;68.33
43147;BME280;28752;48.266;7.402;2023-04-01T12:21:22;98349.47;;;13.61;68.85
43147;BME280;28752;48.266;7.402;2023-04-01T12:29:17;98348.16;;;13.50;69.13
43147;BME280;28752;48.266;7.402;2023-04-01T12:48:29;98341.41;;;14.39;68.74
43147;BME280;28752;48.266;7.402;2023-04-01T12:51:25;98349.94;;;14.28;69.27
43147;BME280;28752;48.266;7.402;2023-04-01T13:02:31;98345.06;;;13.47;66.97
43147;BME280;28752;48.266;7.402;2023-04-01T13:05:18;98338.63;;;13.35;68.16
43147;BME280;28752;48.266;7.402;2023-04-01T13:16:31;98354.41;;;13.43;66.55
43147;BME280;28752;48.266;7.402;2023-04-01T13:19:01;98356.69;;;13.24;68.39
43147;BME280;28752;48.266;7.402;2023-04-01T13:21:42;98352.78;;;13.42;68.84
43147;BME280;28752;48.266;7.402;2023-04-01T13:24:40;98351.63;;;13.51;66.98
43147;BME280;28752;48.266;7.402;2023-04-01T13:33:20;98361.09;;;13.60;66.66
43147;BME280;28752;48.266;7.402;2023-04-01T13:41:09;98357.97;;;13.50;64.83
43147;BME280;28752;48.266;7.402;2023-04-01T13:43:42;98345.91;;;13.54;65.13
43147;BME280;28752;48.266;7.402;2023-04-01T14:00:05;98363.69;;;13.32;62.21
43147;BME280;28752;48.266;7.402;2023-04-01T14:08:11;98349.81;;;13.80;61.73
43147;BME280;28752;48.266;7.402;2023-04-01T14:10:43;98344.44;;;13.73;62.21
43147;BME280;28752;48.266;7.402;2023-04-01T14:24:45;98328.88;;;13.98;62.51
43147;BME280;28752;48.266;7.402;2023-04-01T14:33:12;98329.34;;;14.09;62.83
43147;BME280;28752;48.266;7.402;2023-04-01T14:36:18;98321.09;;;13.97;63.81
43147;BME280;28752;48.266;7.402;2023-04-01T14:39:11;98327.16;;;13.91;62.36
43147;BME280;28752;48.266;7.402;2023-04-01T14:41:48;98342.09;;;13.85;63.91
43147;BME280;28752;48.266;7.402;2023-04-01T14:47:15;98368.22;;;13.53;68.27
43147;BME280;28752;48.266;7.402;2023-04-01T14:49:53;98353.97;;;13.61;65.34
43147;BME280;28752;48.266;7.402;2023-04-01T14:52:27;98355.53;;;13.77;64.23
43147;BME280;28752;48.266;7.402;2023-04-01T14:54:54;98346.75;;;13.83;63.28
43147;BME280;28752;48.266;7.402;2023-04-01T14:57:25;98348.41;;;13.84;62.23
43147;BME280;28752;48.266;7.402;2023-04-01T15:00:14;98355.88;;;13.95;60.90
43147;BME280;28752;48.266;7.402;2023-04-01T15:02:50;98361.25;;;14.02;59.75
43147;BME280;28752;48.266;7.402;2023-04-01T15:08:01;98366.28;;;14.18;60.38
43147;BME280;28752;48.266;7.402;2023-04-01T15:10:57;98377.03;;;14.03;60.03
43147;BME280;28752;48.266;7.402;2023-04-01T15:16:23;98361.81;;;13.97;61.56
43147;BME280;28752;48.266;7.402;2023-04-01T15:19:20;98367.91;;;13.91;60.50
43147;BME280;28752;48.266;7.402;2023-04-01T15:27:55;98381.34;;;14.04;60.78
43147;BME280;28752;48.266;7.402;2023-04-01T15:30:36;98403.78;;;13.95;62.84
43147;BME280;28752;48.266;7.402;2023-04-01T15:35:59;98385.44;;;13.57;63.80
43147;BME280;28752;48.266;7.402;2023-04-01T15:43:53;98400.25;;;13.08;63.20
43147;BME280;28752;48.266;7.402;2023-04-01T15:46:41;98393.03;;;13.02;65.54
43147;BME280;28752;48.266;7.402;2023-04-01T16:00:57;98402.28;;;12.91;65.64
43147;BME280;28752;48.266;7.402;2023-04-01T16:03:40;98399.31;;;13.16;65.21
43147;BME280;28752;48.266;7.402;2023-04-01T16:09:17;98393.69;;;12.89;64.04
43147;BME280;28752;48.266;7.402;2023-04-01T16:12:15;98388.97;;;13.06;63.22
43147;BME280;28752;48.266;7.402;2023-04-01T16:15:04;98386.88;;;13.02;62.14
43147;BME280;28752;48.266;7.402;2023-04-01T16:20:14;98382.31;;;12.95;62.54
43147;BME280;28752;48.266;7.402;2023-04-01T16:22:53;98372.28;;;12.76;62.63
43147;BME280;28752;48.266;7.402;2023-04-01T16:31:03;98410.75;;;12.80;63.09
43147;BME280;28752;48.266;7.402;2023-04-01T16:36:21;98409.53;;;12.97;65.65
43147;BME280;28752;48.266;7.402;2023-04-01T16:41:19;98414.03;;;12.82;68.41
43147;BME280;28752;48.266;7.402;2023-04-01T16:43:49;98419.78;;;13.01;67.96
43147;BME280;28752;48.266;7.402;2023-04-01T16:46:34;98435.56;;;12.87;67.94
43147;BME280;28752;48.266;7.402;2023-04-01T17:00:00;98430.28;;;12.72;68.72
43147;BME280;28752;48.266;7.402;2023-04-01T17:02:35;98420.66;;;12.71;68.36
43147;BME280;28752;48.266;7.402;2023-04-01T17:05:09;98401.31;;;12.48;66.29
43147;BME280;28752;48.266;7.402;2023-04-01T17:07:43;98404.16;;;12.46;69.65
43147;BME280;28752;48.266;7.402;2023-04-01T17:10:33;98396.66;;;12.35;69.24
43147;BME280;28752;48.266;7.402;2023-04-01T17:18:50;98409.97;;;11.97;69.69
43147;BME280;28752;48.266;7.402;2023-04-01T17:26:51;98413.97;;;11.69;73.32
43147;BME280;28752;48.266;7.402;2023-04-01T17:29:34;98425.53;;;11.53;74.34
43147;BME280;28752;48.266;7.402;2023-04-01T17:32:16;98428.06;;;11.47;74.99
43147;BME280;28752;48.266;7.402;2023-04-01T17:42:59;98446.56;;;10.92;76.81
43147;BME280;28752;48.266;7.402;2023-04-01T17:45:53;98446.91;;;10.89;77.42
43147;BME280;28752;48.266;7.402;2023-04-01T18:00:40;98458.13;;;10.60;77.03
43147;BME280;28752;48.266;7.402;2023-04-01T18:02:42;98459.28;;;10.49;77.29
43147;BME280;28752;48.266;7.402;2023-04-01T18:11:00;98456.31;;;10.44;76.72
43147;BME280;28752;48.266;7.402;2023-04-01T18:21:17;98467.75;;;10.28;76.62
43147;BME280;28752;48.266;7.402;2023-04-01T18:23:51;98469.56;;;10.44;76.40
43147;BME280;28752;48.266;7.402;2023-04-01T18:26:23;98465.44;;;10.33;76.56
43147;BME280;28752;48.266;7.402;2023-04-01T18:29:04;98465.75;;;10.13;77.58
43147;BME280;28752;48.266;7.402;2023-04-01T18:31:41;98469.72;;;10.26;77.22
43147;BME280;28752;48.266;7.402;2023-04-01T18:34:39;98476.66;;;10.19;77.70
43147;BME280;28752;48.266;7.402;2023-04-01T18:37:25;98467.09;;;10.18;77.97
43147;BME280;28752;48.266;7.402;2023-04-01T18:39:53;98474.69;;;9.96;79.19
43147;BME280;28752;48.266;7.402;2023-04-01T18:42:42;98467.41;;;9.90;78.84
43147;BME280;28752;48.266;7.402;2023-04-01T18:45:27;98487.25;;;9.94;79.01
43147;BME280;28752;48.266;7.402;2023-04-01T18:48:30;98485.13;;;9.98;78.83
43147;BME280;28752;48.266;7.402;2023-04-01T18:51:01;98486.94;;;9.89;79.34
43147;BME280;28752;48.266;7.402;2023-04-01T18:56:02;98502.09;;;9.87;79.72
43147;BME280;28752;48.266;7.402;2023-04-01T18:58:53;98514.84;;;9.83;78.97
43147;BME280;28752;48.266;7.402;2023-04-01T19:21:58;98539.09;;;9.62;77.33
43147;BME280;28752;48.266;7.402;2023-04-01T19:27:18;98545.38;;;9.61;76.06
43147;BME280;28752;48.266;7.402;2023-04-01T19:36:16;98593.22;;;9.50;78.72
43147;BME280;28752;48.266;7.402;2023-04-01T19:47:24;98614.59;;;9.65;80.69
43147;BME280;28752;48.266;7.402;2023-04-01T19:52:47;98634.63;;;9.75;79.84
43147;BME280;28752;48.266;7.402;2023-04-01T19:57:53;98627.09;;;9.54;79.98
43147;BME280;28752;48.266;7.402;2023-04-01T20:00:25;98626.63;;;9.59;80.91
43147;BME280;28752;48.266;7.402;2023-04-01T20:03:07;98625.06;;;9.40;79.94
43147;BME280;28752;48.266;7.402;2023-04-01T20:11:18;98644.38;;;9.40;81.79
43147;BME280;28752;48.266;7.402;2023-04-01T20:16:20;98671.22;;;9.01;86.51
43147;BME280;28752;48.266;7.402;2023-04-01T20:18:57;98655.91;;;9.05;87.04
43147;BME280;28752;48.266;7.402;2023-04-01T20:26:20;98646.63;;;8.75;85.06
43147;BME280;28752;48.266;7.402;2023-04-01T20:35:08;98609.75;;;8.47;86.73
43147;BME280;28752;48.266;7.402;2023-04-01T20:37:40;98627.16;;;8.58;86.22
43147;BME280;28752;48.266;7.402;2023-04-01T20:40:47;98652.56;;;8.59;85.33
43147;BME280;28752;48.266;7.402;2023-04-01T20:45:56;98629.94;;;8.56;86.34
43147;BME280;28752;48.266;7.402;2023-04-01T20:51:30;98611.03;;;8.61;84.13
43147;BME280;28752;48.266;7.402;2023-04-01T20:59:28;98610.56;;;8.65;84.16
43147;BME280;28752;48.266;7.402;2023-04-01T21:02:30;98607.03;;;8.75;83.71
43147;BME280;28752;48.266;7.402;2023-04-01T21:05:26;98631.97;;;8.62;84.03
43147;BME280;28752;48.266;7.402;2023-04-01T21:21:21;98655.69;;;8.98;82.18
43147;BME280;28752;48.266;7.402;2023-04-01T21:39:58;98686.97;;;9.11;81.69
43147;BME280;28752;48.266;7.402;2023-04-01T21:42:41;98692.03;;;9.04;83.15
43147;BME280;28752;48.266;7.402;2023-04-01T21:45:27;98680.50;;;9.05;82.91
43147;BME280;28752;48.266;7.402;2023-04-01T22:18:42;98684.84;;;9.15;82.40
43147;BME280;28752;48.266;7.402;2023-04-01T22:21:34;98700.88;;;9.21;82.89
43147;BME280;28752;48.266;7.402;2023-04-01T22:24:24;98705.03;;;9.24;83.20
43147;BME280;28752;48.266;7.402;2023-04-01T22:32:43;98701.09;;;9.02;84.21
43147;BME280;28752;48.266;7.402;2023-04-01T22:40:42;98685.47;;;9.09;83.46
43147;BME280;28752;48.266;7.402;2023-04-01T22:43:13;98700.03;;;9.13;83.56
43147;BME280;28752;48.266;7.402;2023-04-01T22:48:32;98701.97;;;9.11;84.40
43147;BME280;28752;48.266;7.402;2023-04-01T22:54:13;98698.06;;;9.15;83.68
43147;BME280;28752;48.266;7.402;2023-04-01T22:56:45;98700.50;;;9.08;84.75
43147;BME280;28752;48.266;7.402;2023-04-01T23:01:43;98698.25;;;8.95;85.79
43147;BME280;28752;48.266;7.402;2023-04-01T23:04:15;98698.84;;;8.89;85.89
43147;BME280;28752;48.266;7.402;2023-04-01T23:06:46;98700.13;;;8.85;86.02
43147;BME280;28752;48.266;7.402;2023-04-01T23:09:17;98697.63;;;8.83;85.94
43147;BME280;28752;48.266;7.402;2023-04-01T23:12:30;98703.78;;;8.84;85.45
43147;BME280;28752;48.266;7.402;2023-04-01T23:14:34;98707.53;;;8.81;86.26
43147;BME280;28752;48.266;7.402;2023-04-01T23:17:16;98710.31;;;8.80;86.48
43147;BME280;28752;48.266;7.402;2023-04-01T23:20:10;98703.38;;;8.79;86.68
43147;BME280;28752;48.266;7.402;2023-04-01T23:27:54;98718.50;;;8.68;86.30
43147;BME280;28752;48.266;7.402;2023-04-01T23:35:49;98714.69;;;8.71;86.30
43147;BME280;28752;48.266;7.402;2023-04-01T23:38:15;98715.91;;;8.77;85.58
43147;BME280;28752;48.266;7.402;2023-04-01T23:40:41;98720.72;;;8.81;85.81